createdAt,value
2023-05-21T00:00:17.989Z,95542.00
2023-05-21T00:01:17.925Z,95540.00
2023-05-21T00:02:17.960Z,95538.00
2023-05-21T00:03:19.186Z,95538.00
2023-05-21T00:04:18.022Z,95538.00
2023-05-21T00:05:18.043Z,95536.00
2023-05-21T00:06:18.184Z,95534.00
2023-05-21T00:07:19.057Z,95538.00
2023-05-21T00:08:18.284Z,95538.00
2023-05-21T00:09:19.176Z,95538.00
2023-05-21T00:10:18.165Z,95540.00
2023-05-21T00:11:19.306Z,95542.00
2023-05-21T00:12:19.096Z,95540.00
2023-05-21T00:13:18.337Z,95538.00
2023-05-21T00:14:18.136Z,95540.00
2023-05-21T00:15:19.135Z,95540.00
2023-05-21T00:16:19.183Z,95540.00
2023-05-21T00:17:19.290Z,95540.00
2023-05-21T00:18:19.205Z,95540.00
2023-05-21T00:19:18.307Z,95538.00
2023-05-21T00:20:18.340Z,95540.00
2023-05-21T00:21:19.573Z,95538.00
2023-05-21T00:22:18.529Z,95538.00
2023-05-21T00:23:18.396Z,95536.00
2023-05-21T00:24:18.491Z,95534.00
2023-05-21T00:25:18.448Z,95532.00
2023-05-21T00:26:18.459Z,95532.00
2023-05-21T00:27:18.462Z,95532.00
2023-05-21T00:28:19.669Z,95526.00
2023-05-21T00:29:18.421Z,95528.00
2023-05-21T00:30:18.752Z,95528.00
2023-05-21T00:31:18.505Z,95528.00
2023-05-21T00:32:18.505Z,95530.00
2023-05-21T00:33:18.718Z,95530.00
2023-05-21T00:34:19.580Z,95530.00
2023-05-21T00:35:18.737Z,95530.00
2023-05-21T00:36:18.607Z,95532.00
2023-05-21T00:37:18.716Z,95530.00
2023-05-21T00:38:18.793Z,95528.00
2023-05-21T00:39:19.677Z,95526.00
2023-05-21T00:40:18.831Z,95524.00
2023-05-21T00:41:18.894Z,95522.00
2023-05-21T00:42:19.842Z,95522.00
2023-05-21T00:43:18.993Z,95521.00
2023-05-21T00:44:18.890Z,95519.00
2023-05-21T00:45:19.076Z,95521.00
2023-05-21T00:46:20.128Z,95519.00
2023-05-21T00:47:19.016Z,95521.00
2023-05-21T00:48:19.142Z,95519.00
2023-05-21T00:49:19.980Z,95521.00
2023-05-21T00:50:19.941Z,95522.00
2023-05-21T00:51:19.063Z,95524.00
2023-05-21T00:52:19.117Z,95526.00
2023-05-21T00:53:19.012Z,95528.00
2023-05-21T00:54:19.075Z,95528.00
2023-05-21T00:55:19.081Z,95530.00
2023-05-21T00:56:20.119Z,95528.00
2023-05-21T00:57:19.107Z,95532.00
2023-05-21T00:58:20.137Z,95528.00
2023-05-21T00:59:19.276Z,95526.00
2023-05-21T01:00:20.380Z,95524.00
2023-05-21T01:01:20.337Z,95524.00
2023-05-21T01:02:19.339Z,95524.00
2023-05-21T01:03:19.476Z,95524.00
2023-05-21T01:04:19.429Z,95522.00
2023-05-21T01:05:19.632Z,95522.00
2023-05-21T01:06:19.353Z,95522.00
2023-05-21T01:07:20.453Z,95519.00
2023-05-21T01:08:19.590Z,95519.00
2023-05-21T01:09:20.539Z,95521.00
2023-05-21T01:10:19.633Z,95521.00
2023-05-21T01:11:19.869Z,95521.00
2023-05-21T01:12:19.660Z,95521.00
2023-05-21T01:13:19.718Z,95521.00
2023-05-21T01:14:20.761Z,95519.00
2023-05-21T01:15:19.838Z,95519.00
2023-05-21T01:16:20.949Z,95519.00
2023-05-21T01:17:19.772Z,95519.00
2023-05-21T01:18:20.082Z,95519.00
2023-05-21T01:19:19.964Z,95519.00
2023-05-21T01:20:20.781Z,95519.00
2023-05-21T01:21:21.126Z,95521.00
2023-05-21T01:22:19.855Z,95517.00
2023-05-21T01:23:20.143Z,95515.00
2023-05-21T01:24:20.176Z,95511.00
2023-05-21T01:25:20.101Z,95509.00
2023-05-21T01:26:19.973Z,95511.00
2023-05-21T01:27:21.028Z,95509.00
2023-05-21T01:28:21.062Z,95511.00
2023-05-21T01:29:20.142Z,95511.00
2023-05-21T01:30:21.127Z,95513.00
2023-05-21T01:31:20.160Z,95513.00
2023-05-21T01:32:20.189Z,95515.00
2023-05-21T01:33:20.457Z,95517.00
2023-05-21T01:34:21.249Z,95515.00
2023-05-21T01:35:20.280Z,95515.00
2023-05-21T01:36:20.305Z,95515.00
2023-05-21T01:37:20.387Z,95511.00
2023-05-21T01:38:20.577Z,95513.00
2023-05-21T01:39:20.461Z,95511.00
2023-05-21T01:40:20.571Z,95511.00
2023-05-21T01:41:21.501Z,95511.00
2023-05-21T01:42:21.527Z,95507.00
2023-05-21T01:43:20.662Z,95505.00
2023-05-21T01:44:20.631Z,95507.00
2023-05-21T01:45:20.616Z,95507.00
2023-05-21T01:46:21.792Z,95505.00
2023-05-21T01:47:20.850Z,95509.00
2023-05-21T01:48:21.750Z,95511.00
2023-05-21T01:49:20.816Z,95513.00
2023-05-21T01:50:21.790Z,95515.00
2023-05-21T01:51:21.935Z,95515.00
2023-05-21T01:52:20.870Z,95517.00
2023-05-21T01:53:20.922Z,95513.00
2023-05-21T01:54:21.936Z,95511.00
2023-05-21T01:55:21.973Z,95511.00
2023-05-21T01:56:22.082Z,95513.00
2023-05-21T01:57:22.222Z,95513.00
2023-05-21T01:58:22.065Z,95515.00
2023-05-21T01:59:22.112Z,95517.00
2023-05-21T02:00:21.242Z,95519.00
2023-05-21T02:01:22.439Z,95517.00
2023-05-21T02:02:21.246Z,95519.00
2023-05-21T02:03:21.460Z,95515.00
2023-05-21T02:04:21.282Z,95515.00
2023-05-21T02:05:22.390Z,95515.00
2023-05-21T02:06:22.510Z,95515.00
2023-05-21T02:07:22.451Z,95515.00
2023-05-21T02:08:21.596Z,95515.00
2023-05-21T02:09:21.563Z,95515.00
2023-05-21T02:10:22.524Z,95517.00
2023-05-21T02:11:22.619Z,95515.00
2023-05-21T02:12:21.620Z,95515.00
2023-05-21T02:13:24.064Z,95515.00
2023-05-21T02:14:22.754Z,95515.00
2023-05-21T02:15:22.671Z,95517.00
2023-05-21T02:16:22.802Z,95517.00
2023-05-21T02:17:21.662Z,95515.00
2023-05-21T02:18:21.614Z,95517.00
2023-05-21T02:19:22.652Z,95517.00
2023-05-21T02:20:21.684Z,95517.00
2023-05-21T02:21:21.596Z,95517.00
2023-05-21T02:22:22.750Z,95517.00
2023-05-21T02:23:22.716Z,95519.00
2023-05-21T02:24:22.566Z,95519.00
2023-05-21T02:25:22.760Z,95519.00
2023-05-21T02:26:22.627Z,95515.00
2023-05-21T02:27:22.714Z,95517.00
2023-05-21T02:28:21.823Z,95515.00
2023-05-21T02:29:22.547Z,95513.00
2023-05-21T02:30:22.579Z,95511.00
2023-05-21T02:31:21.549Z,95511.00
2023-05-21T02:32:21.564Z,95511.00
2023-05-21T02:33:22.525Z,95509.00
2023-05-21T02:34:21.856Z,95511.00
2023-05-21T02:35:22.627Z,95511.00
2023-05-21T02:36:22.507Z,95509.00
2023-05-21T02:37:21.501Z,95509.00
2023-05-21T02:38:21.558Z,95507.00
2023-05-21T02:39:21.750Z,95505.00
2023-05-21T02:40:22.728Z,95503.00
2023-05-21T02:41:22.680Z,95503.00
2023-05-21T02:42:22.596Z,95497.00
2023-05-21T02:43:22.741Z,95495.00
2023-05-21T02:44:21.873Z,95495.00
2023-05-21T02:45:22.728Z,95495.00
2023-05-21T02:46:22.846Z,95495.00
2023-05-21T02:47:23.021Z,95493.00
2023-05-21T02:48:22.976Z,95491.00
2023-05-21T02:49:22.042Z,95491.00
2023-05-21T02:50:21.976Z,95487.00
2023-05-21T02:51:22.115Z,95487.00
2023-05-21T02:52:22.314Z,95483.00
2023-05-21T02:53:22.340Z,95485.00
2023-05-21T02:54:22.192Z,95489.00
2023-05-21T02:55:23.185Z,95491.00
2023-05-21T02:56:22.431Z,95493.00
2023-05-21T02:57:23.288Z,95495.00
2023-05-21T02:58:22.280Z,95495.00
2023-05-21T02:59:22.580Z,95499.00
2023-05-21T03:00:23.416Z,95501.00
2023-05-21T03:01:22.504Z,95501.00
2023-05-21T03:02:22.848Z,95503.00
2023-05-21T03:03:22.662Z,95501.00
2023-05-21T03:04:23.537Z,95501.00
2023-05-21T03:05:23.588Z,95501.00
2023-05-21T03:06:22.617Z,95501.00
2023-05-21T03:07:22.738Z,95499.00
2023-05-21T03:08:22.725Z,95495.00
2023-05-21T03:09:22.896Z,95499.00
2023-05-21T03:10:22.861Z,95497.00
2023-05-21T03:11:24.009Z,95499.00
2023-05-21T03:12:23.034Z,95499.00
2023-05-21T03:13:24.062Z,95501.00
2023-05-21T03:14:23.077Z,95501.00
2023-05-21T03:15:23.180Z,95499.00
2023-05-21T03:16:23.219Z,95503.00
2023-05-21T03:17:24.221Z,95503.00
2023-05-21T03:18:24.368Z,95503.00
2023-05-21T03:19:24.326Z,95505.00
2023-05-21T03:20:23.450Z,95505.00
2023-05-21T03:21:24.358Z,95505.00
2023-05-21T03:22:23.432Z,95503.00
2023-05-21T03:23:24.405Z,95505.00
2023-05-21T03:24:24.465Z,95503.00
2023-05-21T03:25:24.523Z,95505.00
2023-05-21T03:26:24.628Z,95507.00
2023-05-21T03:27:23.681Z,95509.00
2023-05-21T03:28:24.683Z,95507.00
2023-05-21T03:29:23.840Z,95509.00
2023-05-21T03:30:23.752Z,95509.00
2023-05-21T03:31:24.860Z,95511.00
2023-05-21T03:32:23.937Z,95511.00
2023-05-21T03:33:23.913Z,95509.00
2023-05-21T03:34:24.946Z,95505.00
2023-05-21T03:35:23.980Z,95507.00
2023-05-21T03:36:24.052Z,95507.00
2023-05-21T03:37:24.113Z,95509.00
2023-05-21T03:38:24.122Z,95509.00
2023-05-21T03:39:24.177Z,95511.00
2023-05-21T03:40:25.270Z,95513.00
2023-05-21T03:41:24.277Z,95509.00
2023-05-21T03:42:25.522Z,95513.00
2023-05-21T03:43:25.379Z,95513.00
2023-05-21T03:44:25.449Z,95513.00
2023-05-21T03:45:24.674Z,95511.00
2023-05-21T03:46:25.694Z,95511.00
2023-05-21T03:47:24.557Z,95509.00
2023-05-21T03:48:25.567Z,95509.00
2023-05-21T03:49:24.621Z,95507.00
2023-05-21T03:50:24.684Z,95507.00
2023-05-21T03:51:24.769Z,95505.00
2023-05-21T03:52:24.845Z,95505.00
2023-05-21T03:53:24.991Z,95505.00
2023-05-21T03:54:24.965Z,95503.00
2023-05-21T03:55:25.907Z,95501.00
2023-05-21T03:56:26.185Z,95501.00
2023-05-21T03:57:25.016Z,95503.00
2023-05-21T03:58:26.073Z,95501.00
2023-05-21T03:59:25.202Z,95501.00
2023-05-21T04:00:26.153Z,95499.00
2023-05-21T04:01:26.244Z,95499.00
2023-05-21T04:02:25.379Z,95501.00
2023-05-21T04:03:25.418Z,95495.00
2023-05-21T04:04:25.461Z,95497.00
2023-05-21T04:05:26.504Z,95497.00
2023-05-21T04:06:25.566Z,95497.00
2023-05-21T04:07:26.583Z,95497.00
2023-05-21T04:08:25.713Z,95499.00
2023-05-21T04:09:26.889Z,95501.00
2023-05-21T04:10:26.679Z,95503.00
2023-05-21T04:11:26.726Z,95509.00
2023-05-21T04:12:25.810Z,95509.00
2023-05-21T04:13:25.825Z,95513.00
2023-05-21T04:14:25.852Z,95513.00
2023-05-21T04:15:26.136Z,95513.00
2023-05-21T04:16:25.995Z,95515.00
2023-05-21T04:17:26.019Z,95513.00
2023-05-21T04:18:27.318Z,95515.00
2023-05-21T04:19:27.177Z,95515.00
2023-05-21T04:20:26.248Z,95515.00
2023-05-21T04:21:26.180Z,95515.00
2023-05-21T04:22:26.362Z,95513.00
2023-05-21T04:23:26.302Z,95507.00
2023-05-21T04:24:26.318Z,95503.00
2023-05-21T04:25:27.452Z,95505.00
2023-05-21T04:26:27.391Z,95505.00
2023-05-21T04:27:27.491Z,95509.00
2023-05-21T04:28:26.717Z,95513.00
2023-05-21T04:29:27.571Z,95515.00
2023-05-21T04:30:27.884Z,95517.00
2023-05-21T04:31:26.844Z,95521.00
2023-05-21T04:32:26.755Z,95522.00
2023-05-21T04:33:27.789Z,95521.00
2023-05-21T04:34:27.906Z,95521.00
2023-05-21T04:35:26.855Z,95519.00
2023-05-21T04:36:26.895Z,95519.00
2023-05-21T04:37:27.026Z,95521.00
2023-05-21T04:38:26.983Z,95521.00
2023-05-21T04:39:28.226Z,95522.00
2023-05-21T04:40:28.157Z,95522.00
2023-05-21T04:41:27.373Z,95521.00
2023-05-21T04:42:27.306Z,95519.00
2023-05-21T04:43:28.255Z,95519.00
2023-05-21T04:44:27.261Z,95521.00
2023-05-21T04:45:28.311Z,95515.00
2023-05-21T04:46:27.640Z,95517.00
2023-05-21T04:47:27.440Z,95515.00
2023-05-21T04:48:28.467Z,95517.00
2023-05-21T04:49:28.649Z,95517.00
2023-05-21T04:50:28.556Z,95519.00
2023-05-21T04:51:28.646Z,95519.00
2023-05-21T04:52:28.641Z,95521.00
2023-05-21T04:53:27.834Z,95521.00
2023-05-21T04:54:27.934Z,95522.00
2023-05-21T04:55:27.944Z,95524.00
2023-05-21T04:56:28.944Z,95524.00
2023-05-21T04:57:28.158Z,95526.00
2023-05-21T04:58:28.147Z,95528.00
2023-05-21T04:59:29.099Z,95530.00
2023-05-21T05:00:29.167Z,95532.00
2023-05-21T05:01:28.350Z,95532.00
2023-05-21T05:02:28.170Z,95530.00
2023-05-21T05:03:29.233Z,95528.00
2023-05-21T05:04:28.224Z,95524.00
2023-05-21T05:05:28.301Z,95522.00
2023-05-21T05:06:29.304Z,95521.00
2023-05-21T05:07:28.558Z,95522.00
2023-05-21T05:08:28.628Z,95524.00
2023-05-21T05:09:28.723Z,95522.00
2023-05-21T05:10:29.757Z,95522.00
2023-05-21T05:11:29.640Z,95521.00
2023-05-21T05:12:28.864Z,95522.00
2023-05-21T05:13:29.803Z,95521.00
2023-05-21T05:14:28.726Z,95519.00
2023-05-21T05:15:29.028Z,95519.00
2023-05-21T05:16:28.817Z,95517.00
2023-05-21T05:17:28.856Z,95513.00
2023-05-21T05:18:28.889Z,95515.00
2023-05-21T05:19:29.277Z,95517.00
2023-05-21T05:20:29.980Z,95519.00
2023-05-21T05:21:30.097Z,95519.00
2023-05-21T05:22:29.390Z,95517.00
2023-05-21T05:23:30.424Z,95515.00
2023-05-21T05:24:30.367Z,95517.00
2023-05-21T05:25:30.291Z,95515.00
2023-05-21T05:26:29.321Z,95515.00
2023-05-21T05:27:29.552Z,95515.00
2023-05-21T05:28:29.652Z,95515.00
2023-05-21T05:29:30.667Z,95515.00
2023-05-21T05:30:29.557Z,95513.00
2023-05-21T05:31:30.691Z,95511.00
2023-05-21T05:32:30.925Z,95511.00
2023-05-21T05:33:30.043Z,95511.00
2023-05-21T05:34:29.817Z,95505.00
2023-05-21T05:35:30.027Z,95507.00
2023-05-21T05:36:30.801Z,95505.00
2023-05-21T05:37:30.878Z,95503.00
2023-05-21T05:38:29.897Z,95505.00
2023-05-21T05:39:30.936Z,95505.00
2023-05-21T05:40:30.120Z,95505.00
2023-05-21T05:41:31.047Z,95503.00
2023-05-21T05:42:30.147Z,95503.00
2023-05-21T05:43:30.139Z,95501.00
2023-05-21T05:44:30.284Z,95503.00
2023-05-21T05:45:30.261Z,95501.00
2023-05-21T05:46:31.309Z,95499.00
2023-05-21T05:47:30.438Z,95499.00
2023-05-21T05:48:30.379Z,95499.00
2023-05-21T05:49:31.461Z,95499.00
2023-05-21T05:50:30.499Z,95499.00
2023-05-21T05:51:30.504Z,95503.00
2023-05-21T05:52:31.531Z,95501.00
2023-05-21T05:53:30.643Z,95501.00
2023-05-21T05:54:30.748Z,95501.00
2023-05-21T05:55:31.694Z,95501.00
2023-05-21T05:56:30.747Z,95493.00
2023-05-21T05:57:30.794Z,95489.00
2023-05-21T05:58:32.122Z,95491.00
2023-05-21T05:59:31.892Z,95489.00
2023-05-21T06:00:32.162Z,95491.00
2023-05-21T06:01:30.974Z,95491.00
2023-05-21T06:02:31.223Z,95491.00
2023-05-21T06:03:32.195Z,95487.00
2023-05-21T06:04:31.239Z,95487.00
2023-05-21T06:05:31.155Z,95485.00
2023-05-21T06:06:32.303Z,95483.00
2023-05-21T06:07:32.343Z,95481.00
2023-05-21T06:08:32.369Z,95483.00
2023-05-21T06:09:31.519Z,95481.00
2023-05-21T06:10:31.409Z,95479.00
2023-05-21T06:11:32.616Z,95481.00
2023-05-21T06:12:31.673Z,95481.00
2023-05-21T06:13:32.570Z,95481.00
2023-05-21T06:14:31.625Z,95483.00
2023-05-21T06:15:32.732Z,95481.00
2023-05-21T06:16:32.016Z,95481.00
2023-05-21T06:17:31.792Z,95477.00
2023-05-21T06:18:31.781Z,95479.00
2023-05-21T06:19:31.823Z,95475.00
2023-05-21T06:20:33.056Z,95475.00
2023-05-21T06:21:32.914Z,95475.00
2023-05-21T06:22:32.963Z,95477.00
2023-05-21T06:23:32.016Z,95475.00
2023-05-21T06:24:32.099Z,95474.00
2023-05-21T06:25:32.106Z,95472.00
2023-05-21T06:26:32.165Z,95472.00
2023-05-21T06:27:33.213Z,95472.00
2023-05-21T06:28:32.326Z,95472.00
2023-05-21T06:29:33.432Z,95470.00
2023-05-21T06:30:32.338Z,95470.00
2023-05-21T06:31:33.514Z,95474.00
2023-05-21T06:32:32.520Z,95475.00
2023-05-21T06:33:32.577Z,95477.00
2023-05-21T06:34:32.627Z,95479.00
2023-05-21T06:35:32.646Z,95481.00
2023-05-21T06:36:33.667Z,95481.00
2023-05-21T06:37:32.766Z,95479.00
2023-05-21T06:38:33.844Z,95481.00
2023-05-21T06:39:33.824Z,95479.00
2023-05-21T06:40:33.946Z,95479.00
2023-05-21T06:41:34.018Z,95481.00
2023-05-21T06:42:32.911Z,95479.00
2023-05-21T06:43:33.195Z,95479.00
2023-05-21T06:44:34.098Z,95481.00
2023-05-21T06:45:34.354Z,95479.00
2023-05-21T06:46:34.288Z,95479.00
2023-05-21T06:47:33.205Z,95479.00
2023-05-21T06:48:34.189Z,95477.00
2023-05-21T06:49:34.218Z,95474.00
2023-05-21T06:50:34.370Z,95475.00
2023-05-21T06:51:34.282Z,95475.00
2023-05-21T06:52:34.400Z,95472.00
2023-05-21T06:53:34.391Z,95472.00
2023-05-21T06:54:34.633Z,95470.00
2023-05-21T06:55:34.545Z,95472.00
2023-05-21T06:56:34.546Z,95474.00
2023-05-21T06:57:33.505Z,95472.00
2023-05-21T06:58:33.534Z,95468.00
2023-05-21T06:59:33.802Z,95468.00
2023-05-21T07:00:34.712Z,95470.00
2023-05-21T07:01:33.833Z,95470.00
2023-05-21T07:02:34.882Z,95468.00
2023-05-21T07:03:34.789Z,95468.00
2023-05-21T07:04:33.767Z,95472.00
2023-05-21T07:05:35.393Z,95474.00
2023-05-21T07:06:34.911Z,95474.00
2023-05-21T07:07:34.134Z,95475.00
2023-05-21T07:08:34.864Z,95472.00
2023-05-21T07:09:34.942Z,95474.00
2023-05-21T07:10:34.033Z,95472.00
2023-05-21T07:11:34.980Z,95468.00
2023-05-21T07:12:34.014Z,95470.00
2023-05-21T07:13:34.028Z,95468.00
2023-05-21T07:14:34.064Z,95468.00
2023-05-21T07:15:35.349Z,95468.00
2023-05-21T07:16:35.146Z,95466.00
2023-05-21T07:17:34.211Z,95468.00
2023-05-21T07:18:34.257Z,95468.00
2023-05-21T07:19:35.211Z,95466.00
2023-05-21T07:20:35.297Z,95464.00
2023-05-21T07:21:34.228Z,95464.00
2023-05-21T07:22:34.502Z,95464.00
2023-05-21T07:23:34.689Z,95462.00
2023-05-21T07:24:35.466Z,95460.00
2023-05-21T07:25:35.660Z,95464.00
2023-05-21T07:26:35.376Z,95462.00
2023-05-21T07:27:34.416Z,95464.00
2023-05-21T07:28:35.501Z,95462.00
2023-05-21T07:29:34.720Z,95458.00
2023-05-21T07:30:35.546Z,95460.00
2023-05-21T07:31:34.660Z,95458.00
2023-05-21T07:32:34.516Z,95460.00
2023-05-21T07:33:35.549Z,95460.00
2023-05-21T07:34:34.565Z,95462.00
2023-05-21T07:35:34.916Z,95464.00
2023-05-21T07:36:34.596Z,95462.00
2023-05-21T07:37:34.752Z,95462.00
2023-05-21T07:38:34.750Z,95460.00
2023-05-21T07:39:35.837Z,95460.00
2023-05-21T07:40:35.646Z,95462.00
2023-05-21T07:41:35.728Z,95462.00
2023-05-21T07:42:35.666Z,95460.00
2023-05-21T07:43:34.807Z,95460.00
2023-05-21T07:44:34.741Z,95458.00
2023-05-21T07:45:35.184Z,95460.00
2023-05-21T07:46:36.037Z,95456.00
2023-05-21T07:47:36.093Z,95458.00
2023-05-21T07:48:35.798Z,95456.00
2023-05-21T07:49:34.958Z,95456.00
2023-05-21T07:50:35.009Z,95454.00
2023-05-21T07:51:35.098Z,95452.00
2023-05-21T07:52:34.900Z,95450.00
2023-05-21T07:53:34.927Z,95450.00
2023-05-21T07:54:35.997Z,95448.00
2023-05-21T07:55:35.173Z,95444.00
2023-05-21T07:56:34.977Z,95446.00
2023-05-21T07:57:34.938Z,95448.00
2023-05-21T07:58:35.017Z,95446.00
2023-05-21T07:59:35.232Z,95446.00
2023-05-21T08:00:36.084Z,95448.00
2023-05-21T08:01:34.988Z,95446.00
2023-05-21T08:02:35.124Z,95444.00
2023-05-21T08:03:36.207Z,95442.00
2023-05-21T08:04:35.079Z,95444.00
2023-05-21T08:05:36.529Z,95440.00
2023-05-21T08:06:35.161Z,95440.00
2023-05-21T08:07:35.225Z,95442.00
2023-05-21T08:08:36.104Z,95442.00
2023-05-21T08:09:35.206Z,95440.00
2023-05-21T08:10:35.197Z,95438.00
2023-05-21T08:11:36.220Z,95442.00
2023-05-21T08:12:36.171Z,95440.00
2023-05-21T08:13:36.405Z,95444.00
2023-05-21T08:14:35.454Z,95442.00
2023-05-21T08:15:35.604Z,95440.00
2023-05-21T08:16:35.521Z,95438.00
2023-05-21T08:17:36.524Z,95438.00
2023-05-21T08:18:36.239Z,95438.00
2023-05-21T08:19:35.359Z,95434.00
2023-05-21T08:20:35.332Z,95434.00
2023-05-21T08:21:35.375Z,95434.00
2023-05-21T08:22:36.303Z,95432.00
2023-05-21T08:23:35.520Z,95432.00
2023-05-21T08:24:35.450Z,95430.00
2023-05-21T08:25:35.881Z,95434.00
2023-05-21T08:26:35.377Z,95432.00
2023-05-21T08:27:35.439Z,95432.00
2023-05-21T08:28:35.418Z,95428.00
2023-05-21T08:29:35.442Z,95427.00
2023-05-21T08:30:35.449Z,95428.00
2023-05-21T08:31:36.610Z,95428.00
2023-05-21T08:32:35.656Z,95427.00
2023-05-21T08:33:35.480Z,95427.00
2023-05-21T08:34:35.569Z,95427.00
2023-05-21T08:35:36.705Z,95427.00
2023-05-21T08:36:35.675Z,95425.00
2023-05-21T08:37:36.707Z,95427.00
2023-05-21T08:38:36.600Z,95423.00
2023-05-21T08:39:35.781Z,95425.00
2023-05-21T08:40:35.679Z,95421.00
2023-05-21T08:41:35.752Z,95413.00
2023-05-21T08:42:37.747Z,95413.00
2023-05-21T08:43:35.683Z,95413.00
2023-05-21T08:44:36.716Z,95413.00
2023-05-21T08:45:36.054Z,95413.00
2023-05-21T08:46:36.823Z,95413.00
2023-05-21T08:47:36.939Z,95411.00
2023-05-21T08:48:36.872Z,95411.00
2023-05-21T08:49:36.959Z,95421.00
2023-05-21T08:50:37.099Z,95423.00
2023-05-21T08:51:36.995Z,95413.00
2023-05-21T08:52:37.132Z,95423.00
2023-05-21T08:53:36.991Z,95425.00
2023-05-21T08:54:37.007Z,95423.00
2023-05-21T08:55:36.164Z,95423.00
2023-05-21T08:56:37.197Z,95423.00
2023-05-21T08:57:36.024Z,95413.00
2023-05-21T08:58:36.235Z,95421.00
2023-05-21T08:59:36.282Z,95413.00
2023-05-21T09:00:37.247Z,95421.00
2023-05-21T09:01:36.345Z,95411.00
2023-05-21T09:02:37.333Z,95409.00
2023-05-21T09:03:37.231Z,95411.00
2023-05-21T09:04:37.632Z,95405.00
2023-05-21T09:05:36.476Z,95407.00
2023-05-21T09:06:36.393Z,95407.00
2023-05-21T09:07:36.553Z,95409.00
2023-05-21T09:08:37.466Z,95407.00
2023-05-21T09:09:36.624Z,95407.00
2023-05-21T09:10:37.665Z,95407.00
2023-05-21T09:11:36.814Z,95407.00
2023-05-21T09:12:36.747Z,95405.00
2023-05-21T09:13:38.254Z,95403.00
2023-05-21T09:14:36.918Z,95405.00
2023-05-21T09:15:38.254Z,95405.00
2023-05-21T09:16:36.838Z,95405.00
2023-05-21T09:17:36.912Z,95409.00
2023-05-21T09:18:36.986Z,95407.00
2023-05-21T09:19:38.243Z,95409.00
2023-05-21T09:20:37.050Z,95409.00
2023-05-21T09:21:38.068Z,95409.00
2023-05-21T09:22:37.108Z,95411.00
2023-05-21T09:23:38.162Z,95413.00
2023-05-21T09:24:38.367Z,95413.00
2023-05-21T09:25:38.721Z,95411.00
2023-05-21T09:26:37.358Z,95411.00
2023-05-21T09:27:37.364Z,95413.00
2023-05-21T09:28:37.413Z,95411.00
2023-05-21T09:29:37.677Z,95411.00
2023-05-21T09:30:38.087Z,95421.00
2023-05-21T09:31:37.598Z,95421.00
2023-05-21T09:32:37.756Z,95421.00
2023-05-21T09:33:37.708Z,95413.00
2023-05-21T09:34:37.896Z,95413.00
2023-05-21T09:35:38.248Z,95409.00
2023-05-21T09:36:38.902Z,95409.00
2023-05-21T09:37:38.878Z,95409.00
2023-05-21T09:38:37.804Z,95407.00
2023-05-21T09:39:39.009Z,95407.00
2023-05-21T09:40:38.974Z,95405.00
2023-05-21T09:41:38.940Z,95409.00
2023-05-21T09:42:37.949Z,95407.00
2023-05-21T09:43:38.970Z,95407.00
2023-05-21T09:44:39.149Z,95403.00
2023-05-21T09:45:38.351Z,95405.00
2023-05-21T09:46:38.179Z,95403.00
2023-05-21T09:47:39.134Z,95405.00
2023-05-21T09:48:38.144Z,95405.00
2023-05-21T09:49:38.159Z,95403.00
2023-05-21T09:50:39.876Z,95405.00
2023-05-21T09:51:38.257Z,95403.00
2023-05-21T09:52:40.084Z,95401.00
2023-05-21T09:53:38.254Z,95403.00
2023-05-21T09:54:39.441Z,95403.00
2023-05-21T09:55:38.346Z,95401.00
2023-05-21T09:56:38.415Z,95401.00
2023-05-21T09:57:38.458Z,95397.00
2023-05-21T09:58:38.439Z,95399.00
2023-05-21T09:59:38.313Z,95397.00
2023-05-21T10:00:38.491Z,95397.00
2023-05-21T10:01:38.332Z,95397.00
2023-05-21T10:02:39.392Z,95399.00
2023-05-21T10:03:39.282Z,95395.00
2023-05-21T10:04:38.555Z,95397.00
2023-05-21T10:05:38.347Z,95395.00
2023-05-21T10:06:38.211Z,95397.00
2023-05-21T10:07:39.158Z,95395.00
2023-05-21T10:08:38.173Z,95393.00
2023-05-21T10:09:39.159Z,95397.00
2023-05-21T10:10:39.155Z,95395.00
2023-05-21T10:11:39.140Z,95395.00
2023-05-21T10:12:38.250Z,95393.00
2023-05-21T10:13:38.119Z,95389.00
2023-05-21T10:14:38.169Z,95391.00
2023-05-21T10:15:38.098Z,95387.00
2023-05-21T10:16:39.133Z,95387.00
2023-05-21T10:17:38.107Z,95387.00
2023-05-21T10:18:38.061Z,95387.00
2023-05-21T10:19:39.084Z,95383.00
2023-05-21T10:20:38.375Z,95383.00
2023-05-21T10:21:39.073Z,95382.00
2023-05-21T10:22:38.048Z,95382.00
2023-05-21T10:23:39.147Z,95380.00
2023-05-21T10:24:38.061Z,95380.00
2023-05-21T10:25:39.153Z,95378.00
2023-05-21T10:26:38.017Z,95382.00
2023-05-21T10:27:39.319Z,95380.00
2023-05-21T10:28:38.057Z,95378.00
2023-05-21T10:29:39.056Z,95380.00
2023-05-21T10:30:39.406Z,95378.00
2023-05-21T10:31:39.172Z,95376.00
2023-05-21T10:32:39.125Z,95374.00
2023-05-21T10:33:38.268Z,95374.00
2023-05-21T10:34:39.251Z,95372.00
2023-05-21T10:35:38.464Z,95370.00
2023-05-21T10:36:38.183Z,95372.00
2023-05-21T10:37:39.198Z,95368.00
2023-05-21T10:38:38.215Z,95368.00
2023-05-21T10:39:38.333Z,95364.00
2023-05-21T10:40:38.464Z,95360.00
2023-05-21T10:41:39.423Z,95362.00
2023-05-21T10:42:38.269Z,95358.00
2023-05-21T10:43:39.306Z,95360.00
2023-05-21T10:44:38.550Z,95360.00
2023-05-21T10:45:39.423Z,95356.00
2023-05-21T10:46:38.351Z,95356.00
2023-05-21T10:47:39.539Z,95358.00
2023-05-21T10:48:39.488Z,95358.00
2023-05-21T10:49:38.393Z,95356.00
2023-05-21T10:50:38.741Z,95354.00
2023-05-21T10:51:39.495Z,95356.00
2023-05-21T10:52:38.443Z,95354.00
2023-05-21T10:53:39.452Z,95354.00
2023-05-21T10:54:39.596Z,95354.00
2023-05-21T10:55:38.660Z,95352.00
2023-05-21T10:56:39.677Z,95350.00
2023-05-21T10:57:38.500Z,95346.00
2023-05-21T10:58:39.513Z,95348.00
2023-05-21T10:59:39.512Z,95346.00
2023-05-21T11:00:38.685Z,95344.00
2023-05-21T11:01:38.584Z,95340.00
2023-05-21T11:02:38.802Z,95340.00
2023-05-21T11:03:38.961Z,95340.00
2023-05-21T11:04:39.564Z,95336.00
2023-05-21T11:05:38.588Z,95336.00
2023-05-21T11:06:39.591Z,95338.00
2023-05-21T11:07:38.615Z,95338.00
2023-05-21T11:08:39.682Z,95338.00
2023-05-21T11:09:39.674Z,95334.00
2023-05-21T11:10:38.941Z,95336.00
2023-05-21T11:11:38.640Z,95336.00
2023-05-21T11:12:38.659Z,95336.00
2023-05-21T11:13:39.674Z,95332.00
2023-05-21T11:14:38.663Z,95332.00
2023-05-21T11:15:39.688Z,95332.00
2023-05-21T11:16:38.691Z,95330.00
2023-05-21T11:17:38.742Z,95330.00
2023-05-21T11:18:39.725Z,95328.00
2023-05-21T11:19:39.775Z,95328.00
2023-05-21T11:20:38.833Z,95332.00
2023-05-21T11:21:39.730Z,95327.00
2023-05-21T11:22:38.766Z,95330.00
2023-05-21T11:23:39.781Z,95328.00
2023-05-21T11:24:38.820Z,95325.00
2023-05-21T11:25:39.854Z,95323.00
2023-05-21T11:26:39.862Z,95325.00
2023-05-21T11:27:38.913Z,95325.00
2023-05-21T11:28:38.920Z,95325.00
2023-05-21T11:29:38.977Z,95325.00
2023-05-21T11:30:41.099Z,95325.00
2023-05-21T11:31:40.203Z,95325.00
2023-05-21T11:32:39.001Z,95325.00
2023-05-21T11:33:40.073Z,95323.00
2023-05-21T11:34:39.268Z,95323.00
2023-05-21T11:35:39.198Z,95325.00
2023-05-21T11:36:39.211Z,95323.00
2023-05-21T11:37:40.196Z,95323.00
2023-05-21T11:38:39.278Z,95323.00
2023-05-21T11:39:40.132Z,95323.00
2023-05-21T11:40:39.131Z,95319.00
2023-05-21T11:41:39.259Z,95317.00
2023-05-21T11:42:39.341Z,95321.00
2023-05-21T11:43:40.229Z,95319.00
2023-05-21T11:44:39.284Z,95317.00